Terminal Aerodrome Forecast
Issued by NWS Pendleton, OR

Home | Current Version | Previous Version | Text Only | Print | Product List | Glossary On
Versions: 1 2 3 4 5 6 7 8 9 10 11 12 13 14 15 16 17
000
FTUS46 KPDT 260826 AAB
TAFPDT
TAF AMD
KPDT 260826Z 2608/2706 26008KT P6SM -SN BKN030 OVC045
     FM261000 20006KT 6SM -SN BR BKN030 OVC045
     FM261200 18006KT 3SM -SN BR BKN025 OVC030
     FM261900 22008KT 5SM -SNRA BR OVC025
     FM270300 VRB06KT 5SM -SN BR OVC020=

USA.gov is the U.S. government's official web portal to all federal, state and local government web resources and services.